createdAt,value
2017-06-19T00:00:09.529Z,67.17
2017-06-19T00:00:35.640Z,66.75
2017-06-19T00:01:01.770Z,67.04
2017-06-19T00:01:27.884Z,67.14
2017-06-19T00:01:54.015Z,66.94
2017-06-19T00:02:20.120Z,67.24
2017-06-19T00:02:46.221Z,67.04
2017-06-19T00:03:12.344Z,67.04
2017-06-19T00:03:38.575Z,66.75
2017-06-19T00:04:04.739Z,67.04
2017-06-19T00:04:30.838Z,67.36
2017-06-19T00:04:56.930Z,66.69
2017-06-19T00:05:23.035Z,66.5
2017-06-19T00:05:49.138Z,66.69
2017-06-19T00:06:15.230Z,66.69
2017-06-19T00:06:41.335Z,66.5
2017-06-19T00:07:07.497Z,66.3
2017-06-19T00:07:33.585Z,66.5
2017-06-19T00:07:59.686Z,66.2
2017-06-19T00:08:25.783Z,66.78
2017-06-19T00:08:51.890Z,66.59
2017-06-19T00:09:18.016Z,66.4
2017-06-19T00:09:44.110Z,66.11
2017-06-19T00:10:10.219Z,66.5
2017-06-19T00:10:36.369Z,66.5
2017-06-19T00:11:02.457Z,66.69
2017-06-19T00:11:28.583Z,66.59
2017-06-19T00:11:54.746Z,66.4
2017-06-19T00:12:20.881Z,66.88
2017-06-19T00:12:46.983Z,66.69
2017-06-19T00:13:13.114Z,66.3
2017-06-19T00:13:39.260Z,66.59
2017-06-19T00:14:05.353Z,66.69
2017-06-19T00:14:31.464Z,66.5
2017-06-19T00:14:57.563Z,66.88
2017-06-19T00:15:23.656Z,66.5
2017-06-19T00:15:49.794Z,66.4
2017-06-19T00:16:15.895Z,66.2
2017-06-19T00:16:42.014Z,66.4
2017-06-19T00:17:08.117Z,65.72
2017-06-19T00:17:34.225Z,66.4
2017-06-19T00:18:00.314Z,66.2
2017-06-19T00:18:26.442Z,66.2
2017-06-19T00:18:52.549Z,66.4
2017-06-19T00:19:18.639Z,66.3
2017-06-19T00:19:44.745Z,66.3
2017-06-19T00:20:10.838Z,66.4
2017-06-19T00:20:36.942Z,66.59
2017-06-19T00:21:03.051Z,66.59
2017-06-19T00:21:29.138Z,66.4
2017-06-19T00:21:55.239Z,66.66
2017-06-19T00:22:21.378Z,66.59
2017-06-19T00:22:47.496Z,66.98
2017-06-19T00:23:13.621Z,67.08
2017-06-19T00:23:39.726Z,67.08
2017-06-19T00:24:05.825Z,67.08
2017-06-19T00:24:31.915Z,66.5
2017-06-19T00:24:58.063Z,66.59
2017-06-19T00:25:24.172Z,66.69
2017-06-19T00:25:50.307Z,66.59
2017-06-19T00:26:16.401Z,66.59
2017-06-19T00:26:42.502Z,66.27
2017-06-19T00:27:08.636Z,66.3
2017-06-19T00:27:34.731Z,66.75
2017-06-19T00:28:00.851Z,67.14
2017-06-19T00:28:26.960Z,66.85
2017-06-19T00:28:53.059Z,67.14
2017-06-19T00:29:19.176Z,66.94
2017-06-19T00:29:45.284Z,67.04
2017-06-19T00:30:11.415Z,67.24
2017-06-19T00:30:37.516Z,66.85
2017-06-19T00:31:03.637Z,67.04
2017-06-19T00:31:29.728Z,66.75
2017-06-19T00:31:55.842Z,67.14
2017-06-19T00:32:21.939Z,67.33
2017-06-19T00:32:48.035Z,66.5
2017-06-19T00:33:14.141Z,66.75
2017-06-19T00:33:40.243Z,66.27
2017-06-19T00:34:06.335Z,66.56
2017-06-19T00:34:32.438Z,66.56
2017-06-19T00:34:58.545Z,66.2
2017-06-19T00:35:24.683Z,66.5
2017-06-19T00:35:50.785Z,66.3
2017-06-19T00:36:16.909Z,66.36
2017-06-19T00:36:43.017Z,66.5
2017-06-19T00:37:09.118Z,66.36
2017-06-19T00:37:35.208Z,66.85
2017-06-19T00:38:01.341Z,67.14
2017-06-19T00:38:27.503Z,67.33
2017-06-19T00:38:53.592Z,67.17
2017-06-19T00:39:19.697Z,67.17
2017-06-19T00:39:45.832Z,66.59
2017-06-19T00:40:11.950Z,66.98
2017-06-19T00:40:38.051Z,66.3
2017-06-19T00:41:04.159Z,66.5
2017-06-19T00:41:30.279Z,66.5
2017-06-19T00:41:56.416Z,66.59
2017-06-19T00:42:22.505Z,66.59
2017-06-19T00:42:48.609Z,66.59
2017-06-19T00:43:14.715Z,66.69
2017-06-19T00:43:40.809Z,66.5
2017-06-19T00:44:06.930Z,66.3
2017-06-19T00:44:33.041Z,66.5
2017-06-19T00:44:59.205Z,66.69
2017-06-19T00:45:25.298Z,66.2
2017-06-19T00:45:51.434Z,66.2
2017-06-19T00:46:17.531Z,66.3
2017-06-19T00:46:43.650Z,66.5
2017-06-19T00:47:09.758Z,66.85
2017-06-19T00:47:35.856Z,67.14
2017-06-19T00:48:02.020Z,66.94
2017-06-19T00:48:28.144Z,67.24
2017-06-19T00:48:54.234Z,66.75
2017-06-19T00:49:20.346Z,66.85
2017-06-19T00:49:46.473Z,67.04
2017-06-19T00:50:12.638Z,67.24
2017-06-19T00:50:38.747Z,67.33
2017-06-19T00:51:04.876Z,67.43
2017-06-19T00:51:30.968Z,67.52
2017-06-19T00:51:57.099Z,67.24
2017-06-19T00:52:23.207Z,67.82
2017-06-19T00:52:49.333Z,67.43
2017-06-19T00:53:15.433Z,67.62
2017-06-19T00:53:41.525Z,67.62
2017-06-19T00:54:07.631Z,67.62
2017-06-19T00:54:33.730Z,67.82
2017-06-19T00:54:59.820Z,67.52
2017-06-19T00:55:25.951Z,67.82
2017-06-19T00:55:52.058Z,67.62
2017-06-19T00:56:18.173Z,68.1
2017-06-19T00:56:44.273Z,68.01
2017-06-19T00:57:10.381Z,68.55
2017-06-19T00:57:36.499Z,69.04
2017-06-19T00:58:02.624Z,69.04
2017-06-19T00:58:28.732Z,69.62
2017-06-19T00:58:54.826Z,69.71
2017-06-19T00:59:20.918Z,69.62
2017-06-19T00:59:47.032Z,69.52
2017-06-19T01:00:13.129Z,69.62
2017-06-19T01:00:39.247Z,70
2017-06-19T01:01:05.355Z,69.9
2017-06-19T01:01:31.455Z,69.9
2017-06-19T01:01:57.545Z,69.81
2017-06-19T01:02:23.651Z,69.81
2017-06-19T01:02:49.757Z,70
2017-06-19T01:03:15.897Z,69.58
2017-06-19T01:03:42.024Z,70
2017-06-19T01:04:08.118Z,69.71
2017-06-19T01:04:34.231Z,70
2017-06-19T01:05:00.356Z,69.52
2017-06-19T01:05:26.475Z,69.52
2017-06-19T01:05:52.630Z,69.32
2017-06-19T01:06:18.741Z,69.62
2017-06-19T01:06:44.829Z,69.62
2017-06-19T01:07:10.930Z,69.52
2017-06-19T01:07:37.040Z,69.42
2017-06-19T01:08:03.134Z,69.81
2017-06-19T01:08:29.234Z,69.62
2017-06-19T01:08:55.339Z,69.42
2017-06-19T01:09:21.435Z,68.94
2017-06-19T01:09:47.542Z,69.04
2017-06-19T01:10:13.631Z,68.65
2017-06-19T01:10:39.733Z,68.94
2017-06-19T01:11:05.843Z,69.71
2017-06-19T01:11:31.934Z,69.71
2017-06-19T01:11:58.042Z,69.97
2017-06-19T01:12:24.166Z,69.97
2017-06-19T01:12:50.262Z,70.36
2017-06-19T01:13:16.353Z,70.36
2017-06-19T01:13:42.493Z,70.26
2017-06-19T01:14:08.623Z,70.64
2017-06-19T01:14:34.715Z,70.36
2017-06-19T01:15:00.850Z,70.54
2017-06-19T01:15:26.945Z,70.74
2017-06-19T01:15:53.054Z,71.03
2017-06-19T01:16:19.149Z,70.74
2017-06-19T01:16:45.243Z,70.84
2017-06-19T01:17:11.355Z,70.64
2017-06-19T01:17:37.455Z,70.64
2017-06-19T01:18:03.574Z,70.54
2017-06-19T01:18:29.682Z,70.36
2017-06-19T01:18:55.783Z,70.26
2017-06-19T01:19:21.875Z,70.84
2017-06-19T01:19:47.979Z,70.64
2017-06-19T01:20:14.116Z,71.03
2017-06-19T01:20:40.212Z,71.22
2017-06-19T01:21:06.311Z,71.22
2017-06-19T01:21:32.403Z,71.42
2017-06-19T01:21:58.511Z,71.67
2017-06-19T01:22:24.641Z,71.9
2017-06-19T01:22:50.735Z,71.86
2017-06-19T01:23:16.842Z,72.06
2017-06-19T01:23:42.949Z,72.15
2017-06-19T01:24:09.061Z,72.06
2017-06-19T01:24:35.212Z,72.54
2017-06-19T01:25:01.321Z,72.54
2017-06-19T01:25:27.413Z,73.02
2017-06-19T01:25:53.510Z,72.63
2017-06-19T01:26:19.636Z,73.02
2017-06-19T01:26:45.742Z,72.92
2017-06-19T01:27:11.876Z,73.31
2017-06-19T01:27:37.994Z,72.44
2017-06-19T01:28:04.117Z,72.73
2017-06-19T01:28:30.224Z,73.08
2017-06-19T01:28:56.316Z,72.92
2017-06-19T01:29:22.415Z,72.92
2017-06-19T01:29:48.520Z,73.11
2017-06-19T01:30:14.615Z,72.89
2017-06-19T01:30:40.707Z,72.99
2017-06-19T01:31:06.818Z,72.89
2017-06-19T01:31:32.916Z,73.41
2017-06-19T01:31:59.024Z,73.5
2017-06-19T01:32:25.468Z,73.47
2017-06-19T01:32:51.566Z,72.89
2017-06-19T01:33:17.701Z,73.02
2017-06-19T01:33:43.796Z,72.92
2017-06-19T01:34:09.890Z,72.92
2017-06-19T01:34:36.001Z,72.73
2017-06-19T01:35:02.099Z,72.44
2017-06-19T01:35:28.215Z,73.11
2017-06-19T01:35:54.348Z,72.63
2017-06-19T01:36:20.450Z,72.83
2017-06-19T01:36:46.543Z,72.63
2017-06-19T01:37:12.645Z,72.44
2017-06-19T01:37:38.765Z,71.96
2017-06-19T01:38:04.903Z,71.96
2017-06-19T01:38:31.000Z,72.15
2017-06-19T01:38:57.093Z,71.96
2017-06-19T01:39:23.200Z,72.06
2017-06-19T01:39:49.302Z,71.86
2017-06-19T01:40:15.442Z,71.86
2017-06-19T01:40:41.547Z,71.77
2017-06-19T01:41:07.653Z,71.7
2017-06-19T01:41:33.766Z,71.32
2017-06-19T01:41:59.868Z,71.67
2017-06-19T01:42:25.977Z,71.7
2017-06-19T01:42:52.069Z,71.9
2017-06-19T01:43:18.167Z,71.7
2017-06-19T01:43:44.274Z,72.19
2017-06-19T01:44:10.370Z,72.19
2017-06-19T01:44:36.462Z,71.9
2017-06-19T01:45:02.599Z,71.7
2017-06-19T01:45:28.699Z,72.19
2017-06-19T01:45:54.815Z,72
2017-06-19T01:46:20.948Z,71.67
2017-06-19T01:46:47.048Z,72.54
2017-06-19T01:47:13.165Z,72.83
2017-06-19T01:47:39.298Z,72.92
2017-06-19T01:48:05.405Z,73.11
2017-06-19T01:48:31.525Z,73.18
2017-06-19T01:48:57.647Z,73.18
2017-06-19T01:49:23.737Z,74.05
2017-06-19T01:49:49.872Z,73.95
2017-06-19T01:50:15.974Z,73.85
2017-06-19T01:50:42.065Z,74.52
2017-06-19T01:51:08.168Z,74.78
2017-06-19T01:51:34.276Z,74.62
2017-06-19T01:52:00.365Z,75.01
2017-06-19T01:52:26.467Z,74.97
2017-06-19T01:52:52.574Z,75.59
2017-06-19T01:53:18.666Z,75.26
2017-06-19T01:53:44.766Z,75.01
2017-06-19T01:54:10.864Z,75.07
2017-06-19T01:54:36.968Z,74.78
2017-06-19T01:55:03.078Z,75.36
2017-06-19T01:55:29.165Z,75.93
2017-06-19T01:55:55.268Z,75.84
2017-06-19T01:56:21.375Z,75.74
2017-06-19T01:56:47.467Z,75.84
2017-06-19T01:57:13.567Z,76.13
2017-06-19T01:57:39.676Z,76.03
2017-06-19T01:58:05.797Z,76.13
2017-06-19T01:58:31.915Z,75.84
2017-06-19T01:58:58.027Z,75.84
2017-06-19T01:59:25.229Z,75.55
2017-06-19T01:59:52.952Z,75.4
2017-06-19T02:00:19.509Z,75.01
2017-06-19T02:00:47.316Z,75.01
2017-06-19T02:01:14.820Z,74.52
2017-06-19T02:01:42.336Z,74.82
2017-06-19T02:02:09.961Z,74.05
2017-06-19T02:02:36.527Z,73.95
2017-06-19T02:03:04.564Z,74.14
2017-06-19T02:03:32.414Z,73.85
2017-06-19T02:04:00.319Z,73.95
2017-06-19T02:04:26.420Z,73.85
2017-06-19T02:04:52.535Z,73.75
2017-06-19T02:05:18.641Z,73.75
2017-06-19T02:05:44.731Z,73.85
2017-06-19T02:06:10.842Z,73.75
2017-06-19T02:06:36.938Z,73.95
2017-06-19T02:07:03.054Z,73.6
2017-06-19T02:07:29.163Z,73.31
2017-06-19T02:07:55.265Z,73.27
2017-06-19T02:08:21.357Z,73.66
2017-06-19T02:08:47.460Z,73.95
2017-06-19T02:09:13.568Z,73.95
2017-06-19T02:09:39.658Z,73.85
2017-06-19T02:10:05.761Z,74.24
2017-06-19T02:10:31.866Z,73.95
2017-06-19T02:10:57.958Z,73.85
2017-06-19T02:11:24.091Z,73.95
2017-06-19T02:11:50.184Z,74.24
2017-06-19T02:12:16.289Z,74.82
2017-06-19T02:12:42.397Z,74.82
2017-06-19T02:13:08.486Z,74.33
2017-06-19T02:13:34.589Z,73.95
2017-06-19T02:14:00.698Z,73.95
2017-06-19T02:14:26.790Z,74.05
2017-06-19T02:14:52.885Z,74.14
2017-06-19T02:15:18.995Z,73.95
2017-06-19T02:15:45.093Z,73.95
2017-06-19T02:16:11.211Z,73.95
2017-06-19T02:16:37.316Z,73.85
2017-06-19T02:17:03.469Z,74.14
2017-06-19T02:17:29.576Z,73.66
2017-06-19T02:17:55.670Z,73.66
2017-06-19T02:18:21.794Z,73.66
2017-06-19T02:18:47.931Z,73.95
2017-06-19T02:19:14.053Z,73.75
2017-06-19T02:19:40.144Z,73.66
2017-06-19T02:20:06.284Z,73.75
2017-06-19T02:20:32.408Z,74.14
2017-06-19T02:20:58.499Z,73.66
2017-06-19T02:21:24.608Z,73.95
2017-06-19T02:21:50.737Z,73.66
2017-06-19T02:22:16.840Z,74.05
2017-06-19T02:22:42.936Z,73.95
2017-06-19T02:23:09.079Z,73.75
2017-06-19T02:23:35.190Z,73.66
2017-06-19T02:24:01.344Z,73.85
2017-06-19T02:24:27.458Z,73.85
2017-06-19T02:24:53.566Z,74.33
2017-06-19T02:25:19.673Z,74.62
2017-06-19T02:25:45.782Z,74.49
2017-06-19T02:26:11.905Z,75.01
2017-06-19T02:26:37.995Z,75.36
2017-06-19T02:27:04.108Z,75.36
2017-06-19T02:27:30.206Z,76.13
2017-06-19T02:27:56.298Z,76.03
2017-06-19T02:28:22.405Z,75.93
2017-06-19T02:28:48.506Z,75.93
2017-06-19T02:29:14.596Z,75.74
2017-06-19T02:29:40.701Z,76.8
2017-06-19T02:30:06.835Z,76.51
2017-06-19T02:30:32.948Z,76.71
2017-06-19T02:30:59.048Z,77.19
2017-06-19T02:31:25.156Z,76.61
2017-06-19T02:31:51.276Z,76.51
2017-06-19T02:32:17.423Z,77
2017-06-19T02:32:43.531Z,77.09
2017-06-19T02:33:09.629Z,76.61
2017-06-19T02:33:35.759Z,76.61
2017-06-19T02:34:01.852Z,76.71
2017-06-19T02:34:27.954Z,76.61
2017-06-19T02:34:54.062Z,76.61
2017-06-19T02:35:20.153Z,75.65
2017-06-19T02:35:46.249Z,75.93
2017-06-19T02:36:12.385Z,75.93
2017-06-19T02:36:38.481Z,75.55
2017-06-19T02:37:04.574Z,76.13
2017-06-19T02:37:30.711Z,76.51
2017-06-19T02:37:56.809Z,76.61
2017-06-19T02:38:22.902Z,76.51
2017-06-19T02:38:49.037Z,76.51
2017-06-19T02:39:15.155Z,76.71
2017-06-19T02:39:41.290Z,76.71
2017-06-19T02:40:07.411Z,77
2017-06-19T02:40:33.528Z,77
2017-06-19T02:40:59.667Z,76.8
2017-06-19T02:41:25.767Z,77.38
2017-06-19T02:41:51.884Z,76.9
2017-06-19T02:42:17.993Z,76.61
2017-06-19T02:42:44.123Z,77
2017-06-19T02:43:10.215Z,76.71
2017-06-19T02:43:36.317Z,77
2017-06-19T02:44:02.426Z,75.65
2017-06-19T02:44:28.521Z,75.84
2017-06-19T02:44:54.642Z,75.84
2017-06-19T02:45:20.733Z,75.93
2017-06-19T02:45:46.841Z,76.71
2017-06-19T02:46:12.970Z,76.32
2017-06-19T02:46:39.063Z,76.42
2017-06-19T02:47:05.192Z,76.71
2017-06-19T02:47:31.331Z,76.42
2017-06-19T02:47:57.419Z,76.9
2017-06-19T02:48:23.519Z,76.9
2017-06-19T02:48:49.627Z,76.67
2017-06-19T02:49:15.721Z,77.06
2017-06-19T02:49:41.846Z,77.19
2017-06-19T02:50:07.981Z,77
2017-06-19T02:50:34.077Z,77
2017-06-19T02:51:00.195Z,76.9
2017-06-19T02:51:26.307Z,76.8
2017-06-19T02:51:52.404Z,76.8
2017-06-19T02:52:18.496Z,76.23
2017-06-19T02:52:44.630Z,75.84
2017-06-19T02:53:10.732Z,75.74
2017-06-19T02:53:36.826Z,75.93
2017-06-19T02:54:02.956Z,75.84
2017-06-19T02:54:29.119Z,75.93
2017-06-19T02:54:55.209Z,76.51
2017-06-19T02:55:21.335Z,76.61
2017-06-19T02:55:47.431Z,77.09
2017-06-19T02:56:13.538Z,77
2017-06-19T02:56:39.640Z,77.34
2017-06-19T02:57:05.754Z,77.15
2017-06-19T02:57:31.861Z,77.63
2017-06-19T02:57:57.967Z,77.63
2017-06-19T02:58:24.056Z,78.11
2017-06-19T02:58:50.184Z,78.02
2017-06-19T02:59:16.291Z,78.4
2017-06-19T02:59:42.382Z,78.02
2017-06-19T03:00:08.482Z,78.02
2017-06-19T03:00:34.617Z,78.11
2017-06-19T03:01:00.712Z,78.31
2017-06-19T03:01:26.819Z,78.69
2017-06-19T03:01:52.907Z,78.59
2017-06-19T03:02:19.008Z,78.5
2017-06-19T03:02:45.143Z,78.4
2017-06-19T03:03:11.261Z,78.5
2017-06-19T03:03:37.359Z,78.4
2017-06-19T03:04:03.497Z,78.21
2017-06-19T03:04:29.593Z,78.69
2017-06-19T03:04:55.686Z,78.31
2017-06-19T03:05:21.796Z,78.31
2017-06-19T03:05:47.892Z,78.21
2017-06-19T03:06:14.009Z,78.31
2017-06-19T03:06:40.145Z,78.4
2017-06-19T03:07:06.266Z,77.92
2017-06-19T03:07:32.373Z,77.63
2017-06-19T03:07:58.467Z,77.83
2017-06-19T03:08:24.559Z,77.34
2017-06-19T03:08:50.671Z,77.06
2017-06-19T03:09:16.768Z,77.25
2017-06-19T03:09:42.875Z,77.09
2017-06-19T03:10:08.985Z,76.96
2017-06-19T03:10:35.112Z,77.15
2017-06-19T03:11:01.216Z,76.67
2017-06-19T03:11:27.332Z,77.25
2017-06-19T03:11:53.442Z,77.34
2017-06-19T03:12:19.527Z,77.25
2017-06-19T03:12:45.629Z,76.67
2017-06-19T03:13:11.738Z,77.28
2017-06-19T03:13:37.829Z,76.9
2017-06-19T03:14:03.976Z,76.8
2017-06-19T03:14:30.083Z,76.96
2017-06-19T03:14:56.179Z,77.38
2017-06-19T03:15:22.269Z,77.25
2017-06-19T03:15:48.380Z,77
2017-06-19T03:16:14.500Z,77.09
2017-06-19T03:16:40.593Z,76.8
2017-06-19T03:17:06.726Z,77.15
2017-06-19T03:17:32.827Z,77.06
2017-06-19T03:17:58.928Z,77.06
2017-06-19T03:18:25.025Z,77.15
2017-06-19T03:18:51.116Z,77.73
2017-06-19T03:19:17.226Z,77.73
2017-06-19T03:19:43.347Z,77.73
2017-06-19T03:20:09.441Z,77.73
2017-06-19T03:20:35.548Z,78.02
2017-06-19T03:21:01.649Z,78.11
2017-06-19T03:21:27.741Z,78.31
2017-06-19T03:21:53.868Z,78.69
2017-06-19T03:22:19.975Z,78.4
2017-06-19T03:22:46.066Z,78.5
2017-06-19T03:23:12.192Z,78.46
2017-06-19T03:23:38.312Z,78.94
2017-06-19T03:24:04.419Z,78.75
2017-06-19T03:24:30.520Z,79.13
2017-06-19T03:24:56.610Z,79.61
2017-06-19T03:25:22.715Z,79.52
2017-06-19T03:25:48.823Z,79.61
2017-06-19T03:26:14.910Z,79.9
2017-06-19T03:26:41.012Z,80.48
2017-06-19T03:27:07.147Z,80.15
2017-06-19T03:27:33.267Z,80.63
2017-06-19T03:27:59.367Z,80.73
2017-06-19T03:28:25.477Z,80.83
2017-06-19T03:28:51.573Z,80.83
2017-06-19T03:29:17.706Z,81.3
2017-06-19T03:29:43.823Z,81.4
2017-06-19T03:30:09.926Z,81.4
2017-06-19T03:30:36.039Z,81.3
2017-06-19T03:31:02.132Z,80.92
2017-06-19T03:31:28.231Z,80.73
2017-06-19T03:31:54.339Z,80.58
2017-06-19T03:32:20.457Z,80.73
2017-06-19T03:32:46.550Z,80.63
2017-06-19T03:33:12.687Z,80.87
2017-06-19T03:33:38.809Z,80.54
2017-06-19T03:34:04.926Z,80.63
2017-06-19T03:34:31.034Z,80.63
2017-06-19T03:34:57.152Z,80.87
2017-06-19T03:35:23.261Z,80.44
2017-06-19T03:35:49.355Z,80.44
2017-06-19T03:36:15.449Z,80.92
2017-06-19T03:36:41.559Z,81.02
2017-06-19T03:37:07.658Z,80.83
2017-06-19T03:37:33.773Z,81.21
2017-06-19T03:37:59.881Z,81.02
2017-06-19T03:38:25.982Z,81.6
2017-06-19T03:38:52.075Z,81.4
2017-06-19T03:39:18.177Z,81.5
2017-06-19T03:39:44.284Z,81.5
2017-06-19T03:40:10.379Z,81.5
2017-06-19T03:40:36.479Z,81.5
2017-06-19T03:41:02.619Z,81.4
2017-06-19T03:41:28.726Z,81.3
2017-06-19T03:41:54.857Z,81.02
2017-06-19T03:42:20.944Z,80.92
2017-06-19T03:42:47.074Z,81.4
2017-06-19T03:43:13.179Z,80.92
2017-06-19T03:43:39.267Z,81.21
2017-06-19T03:44:05.369Z,81.4
2017-06-19T03:44:31.479Z,81.21
2017-06-19T03:44:57.589Z,80.87
2017-06-19T03:45:23.665Z,81.02
2017-06-19T03:45:49.764Z,80.38
2017-06-19T03:46:15.868Z,80.63
2017-06-19T03:46:42.001Z,80.29
2017-06-19T03:47:08.092Z,80.1
2017-06-19T03:47:34.193Z,80.15
2017-06-19T03:48:00.302Z,80.15
2017-06-19T03:48:26.393Z,80.63
2017-06-19T03:48:52.541Z,80.73
2017-06-19T03:49:18.648Z,80.68
2017-06-19T03:49:44.794Z,80.92
2017-06-19T03:50:10.886Z,80.63
2017-06-19T03:50:36.998Z,80.73
2017-06-19T03:51:03.154Z,80.83
2017-06-19T03:51:29.283Z,80.63
2017-06-19T03:51:55.405Z,80.54
2017-06-19T03:52:21.502Z,80.15
2017-06-19T03:52:47.611Z,80.92
2017-06-19T03:53:13.705Z,81.02
2017-06-19T03:53:39.797Z,80.73
2017-06-19T03:54:05.909Z,81.02
2017-06-19T03:54:32.009Z,80.83
2017-06-19T03:54:58.103Z,81.02
2017-06-19T03:55:24.260Z,81.02
2017-06-19T03:55:50.363Z,80.92
2017-06-19T03:56:16.453Z,81.02
2017-06-19T03:56:42.556Z,81.02
2017-06-19T03:57:08.663Z,80.96
2017-06-19T03:57:34.778Z,81.02
2017-06-19T03:58:00.879Z,80.63
2017-06-19T03:58:27.089Z,80.83
2017-06-19T03:58:53.181Z,80.83
2017-06-19T03:59:19.279Z,81.4
2017-06-19T03:59:45.414Z,81.02
2017-06-19T04:00:11.510Z,81.02
2017-06-19T04:00:37.603Z,80.92
2017-06-19T04:01:03.714Z,81.4
2017-06-19T04:01:29.811Z,80.92
2017-06-19T04:01:55.904Z,80.83
2017-06-19T04:02:22.015Z,80.83
2017-06-19T04:02:48.107Z,80.83
2017-06-19T04:03:14.215Z,80.83
2017-06-19T04:03:40.336Z,80.54
2017-06-19T04:04:06.428Z,80.92
2017-06-19T04:04:32.538Z,80.92
2017-06-19T04:04:58.636Z,81.3
2017-06-19T04:05:24.729Z,80.92
2017-06-19T04:05:50.837Z,81.21
2017-06-19T04:06:16.965Z,81.21
2017-06-19T04:06:43.056Z,81.02
2017-06-19T04:07:09.189Z,80.92
2017-06-19T04:07:35.297Z,80.83
2017-06-19T04:08:01.418Z,80.54
2017-06-19T04:08:27.542Z,80.68
2017-06-19T04:08:53.658Z,80.77
2017-06-19T04:09:19.769Z,80.58
2017-06-19T04:09:45.871Z,80.77
2017-06-19T04:10:11.963Z,80.58
2017-06-19T04:10:38.065Z,80.35
2017-06-19T04:11:04.173Z,80.73
2017-06-19T04:11:30.265Z,80.63
2017-06-19T04:11:56.367Z,80.58
2017-06-19T04:12:22.474Z,80.92
2017-06-19T04:12:48.564Z,80.83
2017-06-19T04:13:14.662Z,80.92
2017-06-19T04:13:40.760Z,81.02
2017-06-19T04:14:06.865Z,80.92
2017-06-19T04:14:32.999Z,80.63
2017-06-19T04:14:59.088Z,80.83
2017-06-19T04:15:25.216Z,80.92
2017-06-19T04:15:51.323Z,80.73
2017-06-19T04:16:17.465Z,81.3
2017-06-19T04:16:43.588Z,81.3
2017-06-19T04:17:09.696Z,81.21
2017-06-19T04:17:35.791Z,81.3
2017-06-19T04:18:01.909Z,80.92
2017-06-19T04:18:28.019Z,80.73
2017-06-19T04:18:54.117Z,80.92
2017-06-19T04:19:20.220Z,81.4
2017-06-19T04:19:46.315Z,81.02
2017-06-19T04:20:12.412Z,81.5
2017-06-19T04:20:38.521Z,81.5
2017-06-19T04:21:04.640Z,81.4
2017-06-19T04:21:30.734Z,81.5
2017-06-19T04:21:56.870Z,81.5
2017-06-19T04:22:22.967Z,81.5
2017-06-19T04:22:49.081Z,81.3
2017-06-19T04:23:15.243Z,81.4
2017-06-19T04:23:41.374Z,80.83
2017-06-19T04:24:07.466Z,80.73
2017-06-19T04:24:33.596Z,80.77
2017-06-19T04:24:59.689Z,80.63
2017-06-19T04:25:25.800Z,80.29
2017-06-19T04:25:51.897Z,80.19
2017-06-19T04:26:17.988Z,80
2017-06-19T04:26:44.099Z,80
2017-06-19T04:27:10.199Z,80.38
2017-06-19T04:27:36.317Z,79.71
2017-06-19T04:28:02.419Z,79.71
2017-06-19T04:28:28.527Z,79.23
2017-06-19T04:28:54.640Z,79.61
2017-06-19T04:29:20.768Z,79.33
2017-06-19T04:29:46.875Z,79.52
2017-06-19T04:30:12.966Z,79.43
2017-06-19T04:30:39.070Z,79.52
2017-06-19T04:31:05.186Z,79.23
2017-06-19T04:31:31.292Z,80
2017-06-19T04:31:57.427Z,79.23
2017-06-19T04:32:23.566Z,79.43
2017-06-19T04:32:49.693Z,79.43
2017-06-19T04:33:15.802Z,79.33
2017-06-19T04:33:41.892Z,78.94
2017-06-19T04:34:07.990Z,79.03
2017-06-19T04:34:34.098Z,79.52
2017-06-19T04:35:00.192Z,79.43
2017-06-19T04:35:26.284Z,79.43
2017-06-19T04:35:52.417Z,79.9
2017-06-19T04:36:18.521Z,80.38
2017-06-19T04:36:44.628Z,80.1
2017-06-19T04:37:10.719Z,80.38
2017-06-19T04:37:36.815Z,80.19
2017-06-19T04:38:02.922Z,80.29
2017-06-19T04:38:29.030Z,80.29
2017-06-19T04:38:55.133Z,80.48
2017-06-19T04:39:21.243Z,80.58
2017-06-19T04:39:47.366Z,80.58
2017-06-19T04:40:13.456Z,80.19
2017-06-19T04:40:39.593Z,79.27
2017-06-19T04:41:05.721Z,79.27
2017-06-19T04:41:31.811Z,78.54
2017-06-19T04:41:57.917Z,77.19
2017-06-19T04:42:24.058Z,76.65
2017-06-19T04:42:50.165Z,75.05
2017-06-19T04:43:16.266Z,74.08
2017-06-19T04:43:42.375Z,73.06
2017-06-19T04:44:08.468Z,72.19
2017-06-19T04:44:34.592Z,71.26
2017-06-19T04:45:00.699Z,70.04
2017-06-19T04:45:26.793Z,69.46
2017-06-19T04:45:52.885Z,68.14
2017-06-19T04:46:19.020Z,66.91
2017-06-19T04:46:45.120Z,66.72
2017-06-19T04:47:11.224Z,66.43
2017-06-19T04:47:37.319Z,65.4
2017-06-19T04:48:03.417Z,64.62
2017-06-19T04:48:29.526Z,64.53
2017-06-19T04:48:55.620Z,64.62
2017-06-19T04:49:21.711Z,64.07
2017-06-19T04:49:47.826Z,64.07
2017-06-19T04:50:13.927Z,62.82
2017-06-19T04:50:40.046Z,63.34
2017-06-19T04:51:06.157Z,61.98
2017-06-19T04:51:32.287Z,60.85
2017-06-19T04:51:58.380Z,60.55
2017-06-19T04:52:24.485Z,59.91
2017-06-19T04:52:50.579Z,59.13
2017-06-19T04:53:16.719Z,59.03
2017-06-19T04:53:42.818Z,58.77
2017-06-19T04:54:08.911Z,58.55
2017-06-19T04:54:35.020Z,58.09
2017-06-19T04:55:01.151Z,57.83
2017-06-19T04:55:27.270Z,57.25
2017-06-19T04:55:53.377Z,57.06
2017-06-19T04:56:19.514Z,57.15
2017-06-19T04:56:45.631Z,57.12
2017-06-19T04:57:11.762Z,57.51
2017-06-19T04:57:37.872Z,57.22
2017-06-19T04:58:03.967Z,57.34
2017-06-19T04:58:30.071Z,57.06
2017-06-19T04:58:56.189Z,57.25
2017-06-19T04:59:22.298Z,56.57
2017-06-19T04:59:48.408Z,56.57
2017-06-19T05:00:14.497Z,56.28
2017-06-19T05:00:40.599Z,56.7
2017-06-19T05:01:06.708Z,55.92
2017-06-19T05:01:32.805Z,55.46
2017-06-19T05:01:58.931Z,55.07
2017-06-19T05:02:25.070Z,54.8
2017-06-19T05:02:51.168Z,54.13
2017-06-19T05:03:17.262Z,54.22
2017-06-19T05:03:43.367Z,53.45
2017-06-19T05:04:09.472Z,53.38
2017-06-19T05:04:35.582Z,52.59
2017-06-19T05:05:01.699Z,52.14
2017-06-19T05:05:27.825Z,51.84
2017-06-19T05:05:53.934Z,51.75
2017-06-19T05:06:20.033Z,51.36
2017-06-19T05:06:46.126Z,51.07
2017-06-19T05:07:12.267Z,50.97
2017-06-19T05:07:38.367Z,50.78
2017-06-19T05:08:04.461Z,50.9
2017-06-19T05:08:30.598Z,50.31
2017-06-19T05:08:56.700Z,50.04
2017-06-19T05:09:22.805Z,49.27
2017-06-19T05:09:48.902Z,49.39
2017-06-19T05:10:14.995Z,49.19
2017-06-19T05:10:41.110Z,48.12
2017-06-19T05:11:07.212Z,47.95
2017-06-19T05:11:33.311Z,46.59
2017-06-19T05:11:59.474Z,46.9
2017-06-19T05:12:25.628Z,46.61
2017-06-19T05:12:51.722Z,46.02
2017-06-19T05:13:17.831Z,45.85
2017-06-19T05:13:43.942Z,45.95
2017-06-19T05:14:10.050Z,45.65
2017-06-19T05:14:36.152Z,45.56
2017-06-19T05:15:02.252Z,45.46
2017-06-19T05:15:28.384Z,45.19
2017-06-19T05:15:54.490Z,45.09
2017-06-19T05:16:20.581Z,44.8
2017-06-19T05:16:46.717Z,44.9
2017-06-19T05:17:12.825Z,45
2017-06-19T05:17:38.917Z,44.8
2017-06-19T05:18:05.020Z,44.97
2017-06-19T05:18:31.131Z,45.07
2017-06-19T05:18:57.226Z,45.17
2017-06-19T05:19:23.325Z,45.07
2017-06-19T05:19:49.462Z,45.73
2017-06-19T05:20:15.559Z,46
2017-06-19T05:20:41.670Z,47.07
2017-06-19T05:21:07.810Z,46.69
2017-06-19T05:21:33.912Z,46.88
2017-06-19T05:22:00.076Z,47.25
2017-06-19T05:22:26.167Z,47.83
2017-06-19T05:22:52.268Z,47.42
2017-06-19T05:23:18.405Z,48.68
2017-06-19T05:23:44.528Z,49.24
2017-06-19T05:24:10.621Z,49.24
2017-06-19T05:24:36.735Z,50.02
2017-06-19T05:25:02.889Z,50.19
2017-06-19T05:25:29.018Z,50.68
2017-06-19T05:25:55.139Z,50.97
2017-06-19T05:26:21.271Z,50.95
2017-06-19T05:26:47.365Z,51.43
2017-06-19T05:27:13.470Z,51.43
2017-06-19T05:27:39.578Z,51.79
2017-06-19T05:28:05.695Z,52.45
2017-06-19T05:28:31.821Z,53.32
2017-06-19T05:28:57.931Z,54.2
2017-06-19T05:29:24.074Z,53.69
2017-06-19T05:29:50.177Z,54.36
2017-06-19T05:30:16.285Z,54.85
2017-06-19T05:30:42.381Z,54.66
2017-06-19T05:31:08.474Z,55.14
2017-06-19T05:31:34.580Z,54.92
2017-06-19T05:32:00.683Z,55.5
2017-06-19T05:32:26.819Z,55.69
2017-06-19T05:32:52.915Z,55.21
2017-06-19T05:33:19.014Z,56.28
2017-06-19T05:33:45.122Z,56.28
2017-06-19T05:34:11.242Z,56.25
2017-06-19T05:34:37.359Z,56.64
2017-06-19T05:35:03.474Z,56.64
2017-06-19T05:35:29.600Z,56.83
2017-06-19T05:35:55.694Z,57.09
2017-06-19T05:36:21.827Z,57.58
2017-06-19T05:36:47.929Z,58.62
2017-06-19T05:37:14.033Z,59.1
2017-06-19T05:37:40.155Z,59.27
2017-06-19T05:38:06.250Z,59.36
2017-06-19T05:38:32.361Z,59.94
2017-06-19T05:38:58.460Z,60.04